createdAt,value
2019-03-09T00:01:16.866Z,1.7
2019-03-09T00:04:16.991Z,1.7
2019-03-09T00:07:17.559Z,1.7
2019-03-09T00:10:16.958Z,1.9
2019-03-09T00:13:16.874Z,1.7
2019-03-09T00:16:17.025Z,1.6
2019-03-09T00:19:16.955Z,1.6
2019-03-09T00:22:17.005Z,1.6
2019-03-09T00:25:16.995Z,1.6
2019-03-09T00:28:16.927Z,1.6
2019-03-09T00:31:16.977Z,1.5
2019-03-09T00:34:17.128Z,1.5
2019-03-09T00:37:16.970Z,1.5
2019-03-09T00:40:16.964Z,1.5
2019-03-09T00:43:17.020Z,1.6
2019-03-09T00:46:16.897Z,1.5
2019-03-09T00:49:16.892Z,1.5
2019-03-09T00:52:17.212Z,1.6
2019-03-09T00:55:17.010Z,1.7
2019-03-09T00:58:16.922Z,1.6
2019-03-09T01:01:16.939Z,1.6
2019-03-09T01:04:16.951Z,1.7
2019-03-09T01:07:17.025Z,1.6
2019-03-09T01:10:16.950Z,1.5
2019-03-09T01:13:17.112Z,1.5
2019-03-09T01:16:16.727Z,1.5
2019-03-09T01:19:16.791Z,1.5
2019-03-09T01:22:16.872Z,1.5
2019-03-09T01:25:16.846Z,1.5
2019-03-09T01:28:16.942Z,1.5
2019-03-09T01:31:16.832Z,1.4
2019-03-09T01:34:16.856Z,1.5
2019-03-09T01:37:16.875Z,1.5
2019-03-09T01:40:16.939Z,1.5
2019-03-09T01:43:16.955Z,1.6
2019-03-09T01:46:16.873Z,1.8
2019-03-09T01:49:16.792Z,1.9
2019-03-09T01:52:16.846Z,1.7
2019-03-09T01:55:16.875Z,1.5
2019-03-09T01:58:16.870Z,1.6
2019-03-09T02:01:16.900Z,1.6
2019-03-09T02:04:16.828Z,1.5
2019-03-09T02:07:16.865Z,1.5
2019-03-09T02:10:16.994Z,1.4
2019-03-09T02:13:16.908Z,1.4
2019-03-09T02:16:16.923Z,1.5
2019-03-09T02:19:16.898Z,1.4
2019-03-09T02:22:17.025Z,1.4
2019-03-09T02:25:16.967Z,1.4
2019-03-09T02:28:16.937Z,1.5
2019-03-09T02:31:16.998Z,1.5
2019-03-09T02:34:16.879Z,1.4
2019-03-09T02:37:16.860Z,1.5
2019-03-09T02:40:16.965Z,1.4
2019-03-09T02:43:16.889Z,1.5
2019-03-09T02:46:16.807Z,1.5
2019-03-09T02:49:16.946Z,1.5
2019-03-09T02:52:16.917Z,1.5
2019-03-09T02:55:16.941Z,1.5
2019-03-09T02:58:16.968Z,1.4
2019-03-09T03:01:17.826Z,1.4
2019-03-09T03:04:17.305Z,1.4
2019-03-09T03:07:17.177Z,1.4
2019-03-09T03:10:16.879Z,1.5
2019-03-09T03:13:17.017Z,1.5
2019-03-09T03:16:16.837Z,1.4
2019-03-09T03:19:17.036Z,1.5
2019-03-09T03:22:17.832Z,1.4
2019-03-09T03:25:16.862Z,1.4
2019-03-09T03:28:16.882Z,1.4
2019-03-09T03:31:17.011Z,1.4
2019-03-09T03:34:17.095Z,1.4
2019-03-09T03:37:16.922Z,1.4
2019-03-09T03:40:16.708Z,1.4
2019-03-09T03:43:16.894Z,1.4
2019-03-09T03:46:16.841Z,1.4
2019-03-09T03:49:16.808Z,1.4
2019-03-09T03:52:16.845Z,1.5
2019-03-09T03:55:17.038Z,1.4
2019-03-09T03:58:16.795Z,1.4
2019-03-09T04:01:16.966Z,1.4
2019-03-09T04:04:16.872Z,1.4
2019-03-09T04:07:16.921Z,1.4
2019-03-09T04:10:16.813Z,1.6
2019-03-09T04:13:16.802Z,1.4
2019-03-09T04:16:16.782Z,1.4
2019-03-09T04:19:16.845Z,1.3
2019-03-09T04:22:16.845Z,1.4
2019-03-09T04:25:16.807Z,1.4
2019-03-09T04:28:16.924Z,1.4
2019-03-09T04:31:16.911Z,1.4
2019-03-09T04:34:16.893Z,1.3
2019-03-09T04:37:16.936Z,1.3
2019-03-09T04:40:16.825Z,1.2
2019-03-09T04:43:16.627Z,1.3
2019-03-09T04:46:16.682Z,1.3
2019-03-09T04:49:16.727Z,1.3
2019-03-09T04:52:16.700Z,1.4
2019-03-09T04:55:16.720Z,1.4
2019-03-09T04:58:16.797Z,1.4
2019-03-09T05:01:16.831Z,1.3
2019-03-09T05:04:16.848Z,1.3
2019-03-09T05:07:16.866Z,1.2
2019-03-09T05:10:16.859Z,1.3
2019-03-09T05:13:16.799Z,1.3
2019-03-09T05:16:16.756Z,1.3
2019-03-09T05:19:17.092Z,1.3
2019-03-09T05:22:16.854Z,1.3
2019-03-09T05:25:16.855Z,1.3
2019-03-09T05:28:16.952Z,1.4
2019-03-09T05:31:16.805Z,1.3
2019-03-09T05:34:16.951Z,1.4
2019-03-09T05:37:16.670Z,1.3
2019-03-09T05:40:16.735Z,1.3
2019-03-09T05:43:16.713Z,1.3
2019-03-09T05:46:17.035Z,1.3
2019-03-09T05:49:16.851Z,1.3
2019-03-09T05:52:16.750Z,1.3
2019-03-09T05:55:16.776Z,1.2
2019-03-09T05:58:16.850Z,1.3
2019-03-09T06:01:16.854Z,4.2
2019-03-09T06:04:16.650Z,2.9
2019-03-09T06:07:16.687Z,2.3
2019-03-09T06:10:16.712Z,2.5
2019-03-09T06:13:16.806Z,3.2
2019-03-09T06:16:16.861Z,2.9
2019-03-09T06:19:16.793Z,2.8
2019-03-09T06:22:16.790Z,2.3
2019-03-09T06:25:16.943Z,2.3
2019-03-09T06:28:16.727Z,1.9
2019-03-09T06:31:16.619Z,2.2
2019-03-09T06:34:16.629Z,2.4
2019-03-09T06:37:16.638Z,2.2
2019-03-09T06:40:16.711Z,2.8
2019-03-09T06:43:16.700Z,2.2
2019-03-09T06:46:16.806Z,1.7
2019-03-09T06:49:16.863Z,1.6
2019-03-09T06:52:17.241Z,2.1
2019-03-09T06:55:16.784Z,1.7
2019-03-09T06:58:16.848Z,1.4
2019-03-09T07:01:16.825Z,1.3
2019-03-09T07:04:16.877Z,1.3
2019-03-09T07:07:16.716Z,1.3
2019-03-09T07:10:16.719Z,1.3
2019-03-09T07:13:16.931Z,1.3
2019-03-09T07:16:16.680Z,1.2
2019-03-09T07:19:16.747Z,1.3
2019-03-09T07:22:16.758Z,1.4
2019-03-09T07:25:16.806Z,1.5
2019-03-09T07:28:16.782Z,1.5
2019-03-09T07:31:16.797Z,1.9
2019-03-09T07:34:16.808Z,1.5
2019-03-09T07:37:16.822Z,1.4
2019-03-09T07:40:16.588Z,1.3
2019-03-09T07:43:16.620Z,1.1
2019-03-09T07:46:16.668Z,1.3
2019-03-09T07:49:16.728Z,1.1
2019-03-09T07:52:16.705Z,1.1
2019-03-09T07:55:16.785Z,1.1
2019-03-09T07:58:16.792Z,1.1
2019-03-09T08:01:16.744Z,1.1
2019-03-09T08:04:16.733Z,1.3
2019-03-09T08:07:16.938Z,1.2
2019-03-09T08:10:16.822Z,1.1
2019-03-09T08:13:16.684Z,1
2019-03-09T08:16:16.869Z,1
2019-03-09T08:19:16.900Z,1
2019-03-09T08:22:16.781Z,0.9
2019-03-09T08:25:16.793Z,1
2019-03-09T08:28:17.085Z,1
2019-03-09T08:31:16.747Z,0.9
2019-03-09T08:34:16.759Z,1.4
2019-03-09T08:37:16.891Z,1.2
2019-03-09T08:40:17.033Z,1.1
2019-03-09T08:43:16.909Z,1
2019-03-09T08:46:16.648Z,1.1
2019-03-09T08:49:16.709Z,1.3
2019-03-09T08:52:16.880Z,1.9
2019-03-09T08:55:18.825Z,2.7
2019-03-09T08:58:16.927Z,2.3
2019-03-09T09:01:16.826Z,1.8
2019-03-09T09:04:16.638Z,1.8
2019-03-09T09:07:16.760Z,3.3
2019-03-09T09:10:16.859Z,3.6
2019-03-09T09:13:16.709Z,3.1
2019-03-09T09:16:16.866Z,3.7
2019-03-09T09:19:16.833Z,3.3
2019-03-09T09:22:16.630Z,2.3
2019-03-09T09:25:16.715Z,2.2
2019-03-09T09:28:16.704Z,2.9
2019-03-09T09:31:16.796Z,3.1
2019-03-09T09:34:16.732Z,2.2
2019-03-09T09:37:16.765Z,2.5
2019-03-09T09:40:16.777Z,4.2
2019-03-09T09:43:16.818Z,3.8
2019-03-09T09:46:17.034Z,2.7
2019-03-09T09:49:16.657Z,2.5
2019-03-09T09:52:16.639Z,2
2019-03-09T09:55:16.735Z,1.7
2019-03-09T09:58:16.809Z,3
2019-03-09T10:01:16.661Z,2
2019-03-09T10:04:16.771Z,2.7
2019-03-09T10:07:16.575Z,3.7
2019-03-09T10:10:16.610Z,2.9
2019-03-09T10:13:16.656Z,3
2019-03-09T10:16:16.645Z,2.5
2019-03-09T10:19:16.773Z,2.4
2019-03-09T10:22:16.817Z,2.3
2019-03-09T10:25:16.723Z,2
2019-03-09T10:28:16.968Z,2.2
2019-03-09T10:31:16.771Z,2.6
2019-03-09T10:34:16.517Z,2.1
2019-03-09T10:37:16.556Z,1.5
2019-03-09T10:40:16.730Z,1.4
2019-03-09T10:43:16.625Z,1.8
2019-03-09T10:46:16.632Z,1.5
2019-03-09T10:49:16.692Z,2.5
2019-03-09T10:52:16.691Z,2.9
2019-03-09T10:55:16.703Z,2.2
2019-03-09T10:58:16.790Z,1.8
2019-03-09T11:01:16.576Z,2
2019-03-09T11:04:28.089Z,1.7
2019-03-09T11:07:16.546Z,1.6
2019-03-09T11:10:16.795Z,2.1
2019-03-09T11:13:16.658Z,2
2019-03-09T11:16:16.695Z,1.9
2019-03-09T11:19:16.765Z,2.1
2019-03-09T11:22:16.676Z,1.9
2019-03-09T11:25:16.770Z,1.8
2019-03-09T11:28:16.826Z,2.4
2019-03-09T11:31:16.678Z,2.4
2019-03-09T11:34:16.747Z,2.8
2019-03-09T11:37:16.751Z,4
2019-03-09T11:40:16.843Z,2.9
2019-03-09T11:43:16.438Z,2.4
2019-03-09T11:46:16.621Z,1.9
2019-03-09T11:49:16.550Z,1.9
2019-03-09T11:52:20.993Z,1.6
2019-03-09T11:55:16.707Z,1.5
2019-03-09T11:58:16.578Z,1.7
2019-03-09T12:01:16.666Z,1.7
2019-03-09T12:04:16.629Z,1.5
2019-03-09T12:07:16.666Z,1.8
2019-03-09T12:10:16.789Z,1.4
2019-03-09T12:13:16.696Z,1.1
2019-03-09T12:16:16.720Z,1.6
2019-03-09T12:19:16.598Z,3.6
2019-03-09T12:22:16.621Z,4
2019-03-09T12:25:16.724Z,3.5
2019-03-09T12:28:16.648Z,2.9
2019-03-09T12:31:16.716Z,2.2
2019-03-09T12:34:16.717Z,1.9
2019-03-09T12:37:16.429Z,2.1
2019-03-09T12:40:16.574Z,2.8
2019-03-09T12:43:16.635Z,2.1
2019-03-09T12:46:16.716Z,2.1
2019-03-09T12:49:16.543Z,2.3
2019-03-09T12:52:16.732Z,1.6
2019-03-09T12:55:16.783Z,2
2019-03-09T12:58:16.717Z,1.6
2019-03-09T13:01:17.074Z,1.4
2019-03-09T13:04:16.473Z,1.3
2019-03-09T13:07:16.634Z,2.3
2019-03-09T13:10:16.594Z,2.6
2019-03-09T13:13:16.606Z,2
2019-03-09T13:16:16.599Z,1.5
2019-03-09T13:19:16.939Z,2.1
2019-03-09T13:22:17.048Z,2.1
2019-03-09T13:25:16.790Z,2.5
2019-03-09T13:28:16.653Z,1.7
2019-03-09T13:31:16.591Z,1.5
2019-03-09T13:34:16.628Z,1.5
2019-03-09T13:37:16.671Z,1.4
2019-03-09T13:40:16.577Z,1.9
2019-03-09T13:43:16.763Z,1.5
2019-03-09T13:46:16.866Z,1.7
2019-03-09T13:49:16.730Z,1.9
2019-03-09T13:52:16.589Z,2.2
2019-03-09T13:55:16.551Z,2.1
2019-03-09T13:58:16.757Z,3.9
2019-03-09T14:01:16.600Z,2.9
2019-03-09T14:04:16.695Z,3.5
2019-03-09T14:07:16.664Z,2.7
2019-03-09T14:10:16.586Z,2.2
2019-03-09T14:13:16.731Z,2.9
2019-03-09T14:16:16.673Z,3.1
2019-03-09T14:19:16.784Z,2.4
2019-03-09T14:22:16.491Z,1.7
2019-03-09T14:25:16.608Z,1.8
2019-03-09T14:28:16.571Z,1.9
2019-03-09T14:31:16.553Z,1.5
2019-03-09T14:34:16.537Z,1.7
2019-03-09T14:37:16.639Z,2
2019-03-09T14:40:16.586Z,2.5
2019-03-09T14:43:16.622Z,2
2019-03-09T14:46:16.630Z,1.5
2019-03-09T14:49:16.813Z,1.4
2019-03-09T14:52:16.680Z,1.3
2019-03-09T14:55:16.502Z,1.2
2019-03-09T14:58:16.400Z,1.4
2019-03-09T15:01:16.568Z,1.2
2019-03-09T15:04:16.600Z,1.3
2019-03-09T15:07:16.470Z,1.7
2019-03-09T15:10:16.706Z,1.3
2019-03-09T15:13:16.545Z,1.5
2019-03-09T15:16:16.707Z,1.3
2019-03-09T15:19:16.598Z,1.3
2019-03-09T15:22:16.653Z,1.2
2019-03-09T15:25:16.868Z,1.2
2019-03-09T15:28:16.722Z,1.8
2019-03-09T15:31:16.687Z,1.4
2019-03-09T15:34:16.681Z,1.3
2019-03-09T15:37:16.460Z,1.1
2019-03-09T15:40:18.094Z,1.1
2019-03-09T15:43:16.465Z,1
2019-03-09T15:46:16.577Z,1.3
2019-03-09T15:49:16.484Z,1.6
2019-03-09T15:52:16.491Z,1.3
2019-03-09T15:55:17.382Z,1.1
2019-03-09T15:58:16.536Z,1
2019-03-09T16:01:16.514Z,1
2019-03-09T16:04:16.577Z,1.3
2019-03-09T16:07:16.673Z,1.2
2019-03-09T16:10:16.609Z,1
2019-03-09T16:13:16.505Z,1
2019-03-09T16:16:17.051Z,1
2019-03-09T16:19:16.454Z,1.1
2019-03-09T16:22:16.522Z,1
2019-03-09T16:25:16.591Z,1.2
2019-03-09T16:28:16.622Z,2.1
2019-03-09T16:31:16.517Z,2
2019-03-09T16:34:16.655Z,2
2019-03-09T16:37:16.709Z,1.9
2019-03-09T16:40:16.960Z,1.6
2019-03-09T16:43:16.680Z,1.4
2019-03-09T16:46:16.490Z,1.5
2019-03-09T16:49:16.535Z,2.3
2019-03-09T16:52:16.582Z,2.8
2019-03-09T16:55:16.550Z,2.2
2019-03-09T16:58:16.689Z,2.2
2019-03-09T17:01:16.606Z,2
2019-03-09T17:04:16.705Z,1.8
2019-03-09T17:07:16.480Z,2.9
2019-03-09T17:10:19.927Z,2.4
2019-03-09T17:13:16.509Z,1.9
2019-03-09T17:16:16.529Z,2
2019-03-09T17:19:16.490Z,3.8
2019-03-09T17:22:16.788Z,3.1
2019-03-09T17:25:16.657Z,2.6
2019-03-09T17:28:16.577Z,2.3
2019-03-09T17:31:16.732Z,2.6
2019-03-09T17:34:16.627Z,2.4
2019-03-09T17:37:16.369Z,1.9
2019-03-09T17:40:16.582Z,2.4
2019-03-09T17:43:16.632Z,1.7
2019-03-09T17:46:16.492Z,1.5
2019-03-09T17:49:16.582Z,1.3
2019-03-09T17:52:16.457Z,1.2
2019-03-09T17:55:16.560Z,1.6
2019-03-09T17:58:16.664Z,1.7
2019-03-09T18:01:16.727Z,1.5
2019-03-09T18:04:16.764Z,1.6
2019-03-09T18:07:16.428Z,1.8
2019-03-09T18:10:16.447Z,1.6
2019-03-09T18:13:16.558Z,2.3
2019-03-09T18:16:16.542Z,2.8
2019-03-09T18:19:16.470Z,2
2019-03-09T18:22:16.574Z,1.8
2019-03-09T18:25:16.609Z,1.4
2019-03-09T18:28:16.557Z,2.2
2019-03-09T18:31:16.619Z,2.2
2019-03-09T18:34:16.568Z,2.4
2019-03-09T18:37:16.641Z,2
2019-03-09T18:40:16.559Z,1.9
2019-03-09T18:43:16.461Z,1.8
2019-03-09T18:46:16.571Z,1.6
2019-03-09T18:49:16.479Z,2.1
2019-03-09T18:52:16.576Z,4.7
2019-03-09T18:55:16.613Z,3.4
2019-03-09T18:58:16.731Z,2.4
2019-03-09T19:01:16.728Z,1.9
2019-03-09T19:04:16.417Z,1.7
2019-03-09T19:07:16.811Z,1.9
2019-03-09T19:10:16.805Z,2
2019-03-09T19:13:16.363Z,1.8
2019-03-09T19:16:16.464Z,1.8
2019-03-09T19:19:16.479Z,2
2019-03-09T19:22:16.488Z,1.7
2019-03-09T19:25:16.543Z,2.6
2019-03-09T19:28:16.494Z,2.5
2019-03-09T19:31:16.680Z,3.4
2019-03-09T19:34:16.608Z,2.3
2019-03-09T19:37:16.385Z,2
2019-03-09T19:40:16.355Z,2.6
2019-03-09T19:43:16.489Z,2.2
2019-03-09T19:46:16.381Z,1.9
2019-03-09T19:49:16.396Z,1.7
2019-03-09T19:52:16.557Z,1.8
2019-03-09T19:55:16.627Z,1.6
2019-03-09T19:58:16.593Z,2
2019-03-09T20:01:16.552Z,3.7
2019-03-09T20:04:16.400Z,3
2019-03-09T20:07:16.432Z,2.2
2019-03-09T20:10:16.405Z,2.1
2019-03-09T20:13:16.525Z,2.6
2019-03-09T20:16:16.598Z,2.6
2019-03-09T20:19:16.600Z,2.1
2019-03-09T20:22:16.581Z,3.9
2019-03-09T20:25:16.499Z,4.3
2019-03-09T20:28:16.354Z,2.8
2019-03-09T20:31:16.296Z,2
2019-03-09T20:34:16.464Z,2.3
2019-03-09T20:37:16.880Z,2
2019-03-09T20:40:16.414Z,1.9
2019-03-09T20:43:16.362Z,1.8
2019-03-09T20:46:16.397Z,2.2
2019-03-09T20:49:16.557Z,2.1
2019-03-09T20:52:16.511Z,2.4
2019-03-09T20:55:16.688Z,2.4
2019-03-09T20:58:16.359Z,2.2
2019-03-09T21:01:16.417Z,2.2
2019-03-09T21:04:16.481Z,2.6
2019-03-09T21:07:16.603Z,3.1
2019-03-09T21:10:16.509Z,3.4
2019-03-09T21:13:16.548Z,2.6
2019-03-09T21:16:16.686Z,2.3
2019-03-09T21:19:16.535Z,2.7
2019-03-09T21:22:16.565Z,2.5
2019-03-09T21:25:16.494Z,2.6
2019-03-09T21:28:16.494Z,3.1
2019-03-09T21:31:16.575Z,2.8
2019-03-09T21:34:16.636Z,2.2
2019-03-09T21:37:16.417Z,2
2019-03-09T21:40:16.588Z,2
2019-03-09T21:43:16.797Z,2.4
2019-03-09T21:46:16.353Z,2.2
2019-03-09T21:49:16.493Z,2.3
2019-03-09T21:52:16.348Z,2.1
2019-03-09T21:55:16.560Z,1.9
2019-03-09T21:58:16.436Z,1.7
2019-03-09T22:01:16.421Z,1.7
2019-03-09T22:04:16.689Z,2.1
2019-03-09T22:07:16.491Z,1.6
2019-03-09T22:10:16.249Z,1.9
2019-03-09T22:13:19.059Z,1.6
2019-03-09T22:16:16.460Z,1.6
2019-03-09T22:19:16.399Z,1.6
2019-03-09T22:22:16.397Z,1.6
2019-03-09T22:25:16.482Z,1.7
2019-03-09T22:28:16.751Z,1.9
2019-03-09T22:31:16.495Z,2.3
2019-03-09T22:34:16.594Z,1.8
2019-03-09T22:37:16.357Z,1.6
2019-03-09T22:40:16.638Z,1.6
2019-03-09T22:43:16.233Z,1.5
2019-03-09T22:46:16.255Z,1.6
2019-03-09T22:49:16.322Z,1.6
2019-03-09T22:52:16.511Z,1.4
2019-03-09T22:55:16.516Z,1.3
2019-03-09T22:58:16.302Z,1.6
2019-03-09T23:01:17.470Z,1.4
2019-03-09T23:04:16.517Z,1.4
2019-03-09T23:07:16.279Z,1.5
2019-03-09T23:10:16.446Z,1.6
2019-03-09T23:13:16.429Z,1.4
2019-03-09T23:16:16.348Z,1.4
2019-03-09T23:19:16.439Z,1.8
2019-03-09T23:22:16.562Z,1.8
2019-03-09T23:25:16.618Z,1.5
2019-03-09T23:28:16.475Z,1.3
2019-03-09T23:31:16.815Z,1.7
2019-03-09T23:34:16.530Z,2.1
2019-03-09T23:37:16.332Z,1.7
2019-03-09T23:40:16.425Z,1.5
2019-03-09T23:43:16.351Z,1.3
2019-03-09T23:46:16.522Z,1.2
2019-03-09T23:49:16.399Z,1.3
2019-03-09T23:52:16.461Z,1.6
2019-03-09T23:55:23.450Z,1.4
2019-03-09T23:58:16.532Z,1.3
